sensor_id;sensor_type;location;lat;lon;timestamp;pressure;altitude;pressure_sealevel;temperature;humidity
36048;BME280;24313;53.370;-6.596;2023-08-07T00:01:38;101590.86;;;12.23;100.00
36048;BME280;24313;53.370;-6.596;2023-08-07T00:04:05;101591.02;;;12.15;100.00
36048;BME280;24313;53.370;-6.596;2023-08-07T00:06:32;101589.37;;;11.47;100.00
36048;BME280;24313;53.370;-6.596;2023-08-07T00:08:59;101589.68;;;11.12;100.00
36048;BME280;24313;53.370;-6.596;2023-08-07T00:11:26;101588.93;;;11.77;100.00
36048;BME280;24313;53.370;-6.596;2023-08-07T00:13:53;101588.77;;;11.35;100.00
36048;BME280;24313;53.370;-6.596;2023-08-07T00:16:21;101585.09;;;12.34;100.00
36048;BME280;24313;53.370;-6.596;2023-08-07T00:18:48;101586.44;;;12.40;100.00
36048;BME280;24313;53.370;-6.596;2023-08-07T00:21:16;101587.41;;;12.23;100.00
36048;BME280;24313;53.370;-6.596;2023-08-07T00:23:43;101590.06;;;10.89;100.00
36048;BME280;24313;53.370;-6.596;2023-08-07T00:26:10;101594.24;;;10.82;100.00
36048;BME280;24313;53.370;-6.596;2023-08-07T00:28:37;101587.19;;;10.94;100.00
36048;BME280;24313;53.370;-6.596;2023-08-07T00:31:04;101589.45;;;11.18;100.00
36048;BME280;24313;53.370;-6.596;2023-08-07T00:33:33;101586.92;;;11.01;100.00
36048;BME280;24313;53.370;-6.596;2023-08-07T00:36:00;101582.09;;;12.07;100.00
36048;BME280;24313;53.370;-6.596;2023-08-07T00:38:27;101585.14;;;12.42;100.00
36048;BME280;24313;53.370;-6.596;2023-08-07T00:40:54;101580.73;;;12.33;100.00
36048;BME280;24313;53.370;-6.596;2023-08-07T00:43:21;101576.34;;;11.93;100.00
36048;BME280;24313;53.370;-6.596;2023-08-07T00:45:48;101575.11;;;11.73;100.00
36048;BME280;24313;53.370;-6.596;2023-08-07T00:48:16;101574.58;;;11.16;100.00
36048;BME280;24313;53.370;-6.596;2023-08-07T00:50:45;101573.59;;;11.05;100.00
36048;BME280;24313;53.370;-6.596;2023-08-07T00:53:13;101575.70;;;10.86;100.00
36048;BME280;24313;53.370;-6.596;2023-08-07T00:55:41;101580.35;;;10.25;100.00
36048;BME280;24313;53.370;-6.596;2023-08-07T00:58:09;101582.68;;;10.45;100.00
36048;BME280;24313;53.370;-6.596;2023-08-07T01:00:37;101586.57;;;10.00;100.00
36048;BME280;24313;53.370;-6.596;2023-08-07T01:03:05;101586.22;;;9.35;100.00
36048;BME280;24313;53.370;-6.596;2023-08-07T01:05:33;101584.41;;;8.96;100.00
36048;BME280;24313;53.370;-6.596;2023-08-07T01:08:01;101582.34;;;8.79;100.00
36048;BME280;24313;53.370;-6.596;2023-08-07T01:10:38;101579.01;;;9.44;100.00
36048;BME280;24313;53.370;-6.596;2023-08-07T01:13:16;101577.23;;;9.60;100.00
36048;BME280;24313;53.370;-6.596;2023-08-07T01:15:48;101572.71;;;9.35;100.00
36048;BME280;24313;53.370;-6.596;2023-08-07T01:18:19;101569.05;;;10.00;100.00
36048;BME280;24313;53.370;-6.596;2023-08-07T01:20:48;101565.90;;;10.27;100.00
36048;BME280;24313;53.370;-6.596;2023-08-07T01:23:15;101569.84;;;9.31;100.00
36048;BME280;24313;53.370;-6.596;2023-08-07T01:25:43;101570.30;;;10.33;100.00
36048;BME280;24313;53.370;-6.596;2023-08-07T01:28:15;101568.16;;;11.08;100.00
36048;BME280;24313;53.370;-6.596;2023-08-07T01:30:50;101565.22;;;11.16;100.00
36048;BME280;24313;53.370;-6.596;2023-08-07T01:33:31;101560.87;;;11.26;100.00
36048;BME280;24313;53.370;-6.596;2023-08-07T01:36:02;101557.76;;;11.08;100.00
36048;BME280;24313;53.370;-6.596;2023-08-07T01:38:33;101555.82;;;11.08;100.00
36048;BME280;24313;53.370;-6.596;2023-08-07T01:41:01;101555.20;;;11.47;100.00
36048;BME280;24313;53.370;-6.596;2023-08-07T01:43:29;101556.22;;;11.00;100.00
36048;BME280;24313;53.370;-6.596;2023-08-07T01:45:57;101557.39;;;11.32;100.00
36048;BME280;24313;53.370;-6.596;2023-08-07T01:48:24;101554.60;;;11.38;100.00
36048;BME280;24313;53.370;-6.596;2023-08-07T01:50:52;101550.32;;;11.18;100.00
36048;BME280;24313;53.370;-6.596;2023-08-07T01:53:19;101548.67;;;11.26;100.00
36048;BME280;24313;53.370;-6.596;2023-08-07T01:55:46;101542.00;;;11.02;100.00
36048;BME280;24313;53.370;-6.596;2023-08-07T01:58:13;101538.17;;;10.96;100.00
36048;BME280;24313;53.370;-6.596;2023-08-07T02:00:40;101535.74;;;11.28;100.00
36048;BME280;24313;53.370;-6.596;2023-08-07T02:03:07;101531.98;;;11.64;100.00
36048;BME280;24313;53.370;-6.596;2023-08-07T02:05:34;101535.06;;;11.12;100.00
36048;BME280;24313;53.370;-6.596;2023-08-07T02:08:01;101535.75;;;11.08;100.00
36048;BME280;24313;53.370;-6.596;2023-08-07T02:10:28;101534.08;;;11.12;100.00
36048;BME280;24313;53.370;-6.596;2023-08-07T02:12:57;101529.01;;;10.85;100.00
36048;BME280;24313;53.370;-6.596;2023-08-07T02:15:25;101525.50;;;10.71;100.00
36048;BME280;24313;53.370;-6.596;2023-08-07T02:17:52;101522.83;;;11.07;100.00
36048;BME280;24313;53.370;-6.596;2023-08-07T02:20:19;101515.82;;;11.05;100.00
36048;BME280;24313;53.370;-6.596;2023-08-07T02:22:46;101512.99;;;10.55;100.00
36048;BME280;24313;53.370;-6.596;2023-08-07T02:25:14;101508.24;;;10.29;100.00
36048;BME280;24313;53.370;-6.596;2023-08-07T02:27:41;101503.64;;;10.60;100.00
36048;BME280;24313;53.370;-6.596;2023-08-07T02:30:09;101501.38;;;10.82;100.00
36048;BME280;24313;53.370;-6.596;2023-08-07T02:32:36;101501.30;;;10.97;100.00
36048;BME280;24313;53.370;-6.596;2023-08-07T02:35:04;101499.07;;;10.80;100.00
36048;BME280;24313;53.370;-6.596;2023-08-07T02:37:31;101494.55;;;10.60;100.00
36048;BME280;24313;53.370;-6.596;2023-08-07T02:39:58;101494.76;;;10.81;100.00
36048;BME280;24313;53.370;-6.596;2023-08-07T02:42:26;101497.70;;;10.93;100.00
36048;BME280;24313;53.370;-6.596;2023-08-07T02:44:53;101498.47;;;11.39;100.00
36048;BME280;24313;53.370;-6.596;2023-08-07T02:47:20;101500.79;;;10.88;100.00
36048;BME280;24313;53.370;-6.596;2023-08-07T02:49:47;101504.36;;;10.60;100.00
36048;BME280;24313;53.370;-6.596;2023-08-07T02:52:14;101515.84;;;10.99;100.00
36048;BME280;24313;53.370;-6.596;2023-08-07T02:54:41;101521.74;;;10.79;100.00
36048;BME280;24313;53.370;-6.596;2023-08-07T02:57:08;101520.72;;;10.50;100.00
36048;BME280;24313;53.370;-6.596;2023-08-07T02:59:35;101523.13;;;10.04;100.00
36048;BME280;24313;53.370;-6.596;2023-08-07T03:02:02;101524.61;;;10.72;100.00
36048;BME280;24313;53.370;-6.596;2023-08-07T03:04:29;101521.95;;;10.75;100.00
36048;BME280;24313;53.370;-6.596;2023-08-07T03:06:56;101522.41;;;10.30;100.00
36048;BME280;24313;53.370;-6.596;2023-08-07T03:09:23;101517.81;;;10.52;100.00
36048;BME280;24313;53.370;-6.596;2023-08-07T03:11:50;101516.53;;;11.00;100.00
36048;BME280;24313;53.370;-6.596;2023-08-07T03:14:17;101513.25;;;11.41;100.00
36048;BME280;24313;53.370;-6.596;2023-08-07T03:16:45;101510.32;;;11.40;100.00
36048;BME280;24313;53.370;-6.596;2023-08-07T03:19:12;101507.04;;;11.68;100.00
36048;BME280;24313;53.370;-6.596;2023-08-07T03:21:40;101504.87;;;10.54;100.00
36048;BME280;24313;53.370;-6.596;2023-08-07T03:24:07;101508.10;;;10.10;100.00
36048;BME280;24313;53.370;-6.596;2023-08-07T03:26:34;101514.93;;;8.78;100.00
36048;BME280;24313;53.370;-6.596;2023-08-07T03:29:01;101512.94;;;9.99;100.00
36048;BME280;24313;53.370;-6.596;2023-08-07T03:31:28;101513.23;;;9.71;100.00
36048;BME280;24313;53.370;-6.596;2023-08-07T03:33:55;101515.60;;;9.20;100.00
36048;BME280;24313;53.370;-6.596;2023-08-07T03:36:22;101508.44;;;9.87;100.00
36048;BME280;24313;53.370;-6.596;2023-08-07T03:38:49;101505.77;;;10.52;100.00
36048;BME280;24313;53.370;-6.596;2023-08-07T03:41:17;101502.71;;;9.39;100.00
36048;BME280;24313;53.370;-6.596;2023-08-07T03:43:44;101484.70;;;10.52;100.00
36048;BME280;24313;53.370;-6.596;2023-08-07T03:46:11;101491.23;;;11.04;100.00
36048;BME280;24313;53.370;-6.596;2023-08-07T03:48:39;101492.04;;;11.63;100.00
36048;BME280;24313;53.370;-6.596;2023-08-07T03:51:07;101478.76;;;11.43;100.00
36048;BME280;24313;53.370;-6.596;2023-08-07T03:53:34;101484.42;;;12.11;100.00
36048;BME280;24313;53.370;-6.596;2023-08-07T03:56:01;101477.76;;;12.44;100.00
36048;BME280;24313;53.370;-6.596;2023-08-07T03:58:33;101478.28;;;12.12;100.00
36048;BME280;24313;53.370;-6.596;2023-08-07T04:01:00;101479.85;;;11.96;100.00
36048;BME280;24313;53.370;-6.596;2023-08-07T04:03:27;101481.38;;;12.12;100.00
36048;BME280;24313;53.370;-6.596;2023-08-07T04:05:55;101483.61;;;12.24;100.00
36048;BME280;24313;53.370;-6.596;2023-08-07T04:08:23;101482.41;;;12.38;100.00
36048;BME280;24313;53.370;-6.596;2023-08-07T04:11:00;101485.73;;;11.98;100.00
36048;BME280;24313;53.370;-6.596;2023-08-07T04:13:28;101483.16;;;12.78;100.00
36048;BME280;24313;53.370;-6.596;2023-08-07T04:15:56;101483.09;;;12.14;100.00
36048;BME280;24313;53.370;-6.596;2023-08-07T04:18:24;101491.11;;;11.38;100.00
36048;BME280;24313;53.370;-6.596;2023-08-07T04:20:53;101485.43;;;11.64;100.00
36048;BME280;24313;53.370;-6.596;2023-08-07T04:23:26;101478.72;;;12.48;100.00
36048;BME280;24313;53.370;-6.596;2023-08-07T04:25:54;101478.03;;;12.37;100.00
36048;BME280;24313;53.370;-6.596;2023-08-07T04:28:21;101485.94;;;11.39;100.00
36048;BME280;24313;53.370;-6.596;2023-08-07T04:30:50;101484.95;;;12.05;100.00
36048;BME280;24313;53.370;-6.596;2023-08-07T04:33:17;101487.81;;;11.91;100.00
36048;BME280;24313;53.370;-6.596;2023-08-07T04:35:44;101491.14;;;11.78;100.00
36048;BME280;24313;53.370;-6.596;2023-08-07T04:38:11;101490.80;;;12.10;100.00
36048;BME280;24313;53.370;-6.596;2023-08-07T04:40:43;101487.12;;;11.92;100.00
36048;BME280;24313;53.370;-6.596;2023-08-07T04:43:09;101487.02;;;12.55;100.00
36048;BME280;24313;53.370;-6.596;2023-08-07T04:45:36;101487.37;;;12.14;100.00
36048;BME280;24313;53.370;-6.596;2023-08-07T04:48:04;101488.17;;;11.85;100.00
36048;BME280;24313;53.370;-6.596;2023-08-07T04:50:31;101478.83;;;12.50;100.00
36048;BME280;24313;53.370;-6.596;2023-08-07T04:52:58;101471.42;;;12.47;100.00
36048;BME280;24313;53.370;-6.596;2023-08-07T04:55:26;101477.11;;;12.39;100.00
36048;BME280;24313;53.370;-6.596;2023-08-07T04:57:53;101470.80;;;12.75;100.00
36048;BME280;24313;53.370;-6.596;2023-08-07T05:00:27;101472.30;;;12.22;100.00
36048;BME280;24313;53.370;-6.596;2023-08-07T05:02:54;101474.86;;;12.49;100.00
36048;BME280;24313;53.370;-6.596;2023-08-07T05:05:22;101472.16;;;12.63;100.00
36048;BME280;24313;53.370;-6.596;2023-08-07T05:07:49;101476.95;;;12.71;100.00
36048;BME280;24313;53.370;-6.596;2023-08-07T05:10:16;101474.62;;;12.66;100.00
36048;BME280;24313;53.370;-6.596;2023-08-07T05:12:43;101471.53;;;11.97;100.00
36048;BME280;24313;53.370;-6.596;2023-08-07T05:15:10;101472.81;;;12.23;100.00
36048;BME280;24313;53.370;-6.596;2023-08-07T05:17:37;101471.46;;;12.51;100.00
36048;BME280;24313;53.370;-6.596;2023-08-07T05:20:06;101469.30;;;12.31;100.00
36048;BME280;24313;53.370;-6.596;2023-08-07T05:22:33;101466.83;;;12.55;100.00
36048;BME280;24313;53.370;-6.596;2023-08-07T05:25:00;101470.44;;;12.85;100.00
36048;BME280;24313;53.370;-6.596;2023-08-07T05:27:28;101471.22;;;12.21;100.00
36048;BME280;24313;53.370;-6.596;2023-08-07T05:29:55;101476.55;;;13.11;100.00
36048;BME280;24313;53.370;-6.596;2023-08-07T05:32:22;101474.61;;;12.63;100.00
36048;BME280;24313;53.370;-6.596;2023-08-07T05:34:50;101474.41;;;11.91;100.00
36048;BME280;24313;53.370;-6.596;2023-08-07T05:37:17;101470.13;;;12.22;100.00
36048;BME280;24313;53.370;-6.596;2023-08-07T05:39:44;101470.17;;;12.26;100.00
36048;BME280;24313;53.370;-6.596;2023-08-07T05:42:12;101475.01;;;12.31;100.00
36048;BME280;24313;53.370;-6.596;2023-08-07T05:44:40;101473.82;;;12.07;100.00
36048;BME280;24313;53.370;-6.596;2023-08-07T05:47:07;101474.37;;;12.60;100.00
36048;BME280;24313;53.370;-6.596;2023-08-07T05:49:35;101471.98;;;11.93;100.00
36048;BME280;24313;53.370;-6.596;2023-08-07T05:52:02;101475.76;;;12.43;100.00
36048;BME280;24313;53.370;-6.596;2023-08-07T05:54:29;101474.82;;;12.44;100.00
36048;BME280;24313;53.370;-6.596;2023-08-07T05:56:56;101474.59;;;12.51;100.00
36048;BME280;24313;53.370;-6.596;2023-08-07T05:59:23;101468.79;;;13.10;100.00
36048;BME280;24313;53.370;-6.596;2023-08-07T06:01:52;101466.56;;;12.65;100.00
36048;BME280;24313;53.370;-6.596;2023-08-07T06:04:20;101472.07;;;12.43;100.00
36048;BME280;24313;53.370;-6.596;2023-08-07T06:06:47;101470.01;;;12.71;100.00
36048;BME280;24313;53.370;-6.596;2023-08-07T06:09:14;101472.34;;;13.25;100.00
36048;BME280;24313;53.370;-6.596;2023-08-07T06:11:41;101466.13;;;13.84;100.00
36048;BME280;24313;53.370;-6.596;2023-08-07T06:14:08;101463.63;;;13.43;100.00
36048;BME280;24313;53.370;-6.596;2023-08-07T06:16:35;101463.57;;;14.14;100.00
36048;BME280;24313;53.370;-6.596;2023-08-07T06:19:02;101459.31;;;13.64;100.00
36048;BME280;24313;53.370;-6.596;2023-08-07T06:21:29;101451.99;;;13.50;100.00
36048;BME280;24313;53.370;-6.596;2023-08-07T06:23:56;101452.24;;;14.05;100.00
36048;BME280;24313;53.370;-6.596;2023-08-07T06:26:23;101454.59;;;14.18;100.00
36048;BME280;24313;53.370;-6.596;2023-08-07T06:28:50;101454.31;;;14.13;100.00
36048;BME280;24313;53.370;-6.596;2023-08-07T06:31:18;101454.65;;;14.08;100.00
36048;BME280;24313;53.370;-6.596;2023-08-07T06:33:46;101461.79;;;12.76;100.00
36048;BME280;24313;53.370;-6.596;2023-08-07T06:36:12;101461.73;;;12.96;100.00
36048;BME280;24313;53.370;-6.596;2023-08-07T06:38:39;101460.21;;;13.02;100.00
36048;BME280;24313;53.370;-6.596;2023-08-07T06:41:07;101456.69;;;13.64;100.00
36048;BME280;24313;53.370;-6.596;2023-08-07T06:43:34;101455.86;;;13.97;100.00
36048;BME280;24313;53.370;-6.596;2023-08-07T06:46:01;101456.95;;;13.09;100.00
36048;BME280;24313;53.370;-6.596;2023-08-07T06:48:28;101445.68;;;13.77;100.00
36048;BME280;24313;53.370;-6.596;2023-08-07T06:50:55;101437.41;;;14.43;100.00
36048;BME280;24313;53.370;-6.596;2023-08-07T06:53:22;101441.54;;;14.07;100.00
36048;BME280;24313;53.370;-6.596;2023-08-07T06:55:49;101437.09;;;13.50;100.00
36048;BME280;24313;53.370;-6.596;2023-08-07T06:58:16;101432.09;;;14.44;100.00
36048;BME280;24313;53.370;-6.596;2023-08-07T07:00:43;101434.92;;;14.15;100.00
36048;BME280;24313;53.370;-6.596;2023-08-07T07:03:10;101436.52;;;13.77;100.00
36048;BME280;24313;53.370;-6.596;2023-08-07T07:05:37;101440.20;;;14.11;100.00
36048;BME280;24313;53.370;-6.596;2023-08-07T07:08:04;101453.53;;;14.17;100.00
36048;BME280;24313;53.370;-6.596;2023-08-07T07:10:32;101445.53;;;13.72;100.00
36048;BME280;24313;53.370;-6.596;2023-08-07T07:12:59;101446.29;;;14.00;100.00
36048;BME280;24313;53.370;-6.596;2023-08-07T07:15:26;101447.98;;;13.50;100.00
36048;BME280;24313;53.370;-6.596;2023-08-07T07:17:58;101455.95;;;13.95;100.00
36048;BME280;24313;53.370;-6.596;2023-08-07T07:20:26;101457.04;;;14.50;100.00
36048;BME280;24313;53.370;-6.596;2023-08-07T07:22:53;101460.99;;;13.72;100.00
36048;BME280;24313;53.370;-6.596;2023-08-07T07:25:20;101464.48;;;14.40;100.00
36048;BME280;24313;53.370;-6.596;2023-08-07T07:27:47;101467.64;;;12.47;100.00
36048;BME280;24313;53.370;-6.596;2023-08-07T07:30:14;101465.94;;;13.20;100.00
36048;BME280;24313;53.370;-6.596;2023-08-07T07:32:41;101463.88;;;13.70;100.00
36048;BME280;24313;53.370;-6.596;2023-08-07T07:35:09;101455.82;;;15.02;100.00
36048;BME280;24313;53.370;-6.596;2023-08-07T07:37:36;101457.02;;;14.48;100.00
36048;BME280;24313;53.370;-6.596;2023-08-07T07:40:03;101462.38;;;14.12;100.00
36048;BME280;24313;53.370;-6.596;2023-08-07T07:42:30;101456.47;;;14.75;100.00
36048;BME280;24313;53.370;-6.596;2023-08-07T07:44:57;101455.55;;;15.62;100.00
36048;BME280;24313;53.370;-6.596;2023-08-07T07:47:24;101447.91;;;15.00;100.00
36048;BME280;24313;53.370;-6.596;2023-08-07T07:50:05;101450.24;;;14.28;100.00
36048;BME280;24313;53.370;-6.596;2023-08-07T07:52:32;101449.58;;;14.87;100.00
36048;BME280;24313;53.370;-6.596;2023-08-07T07:54:59;101450.56;;;14.07;100.00
36048;BME280;24313;53.370;-6.596;2023-08-07T07:57:27;101451.29;;;14.79;100.00
36048;BME280;24313;53.370;-6.596;2023-08-07T07:59:54;101452.42;;;14.69;100.00
36048;BME280;24313;53.370;-6.596;2023-08-07T08:02:22;101449.89;;;15.49;100.00
36048;BME280;24313;53.370;-6.596;2023-08-07T08:04:50;101451.04;;;16.12;100.00
36048;BME280;24313;53.370;-6.596;2023-08-07T08:07:17;101447.22;;;15.34;100.00
36048;BME280;24313;53.370;-6.596;2023-08-07T08:09:45;101451.67;;;14.22;100.00
36048;BME280;24313;53.370;-6.596;2023-08-07T08:12:12;101455.25;;;14.28;100.00
36048;BME280;24313;53.370;-6.596;2023-08-07T08:14:39;101452.85;;;14.87;100.00
36048;BME280;24313;53.370;-6.596;2023-08-07T08:17:07;101454.70;;;14.56;100.00
36048;BME280;24313;53.370;-6.596;2023-08-07T08:19:35;101449.73;;;15.64;100.00
36048;BME280;24313;53.370;-6.596;2023-08-07T08:22:02;101447.35;;;15.05;100.00
36048;BME280;24313;53.370;-6.596;2023-08-07T08:24:30;101441.90;;;15.38;100.00
36048;BME280;24313;53.370;-6.596;2023-08-07T08:26:56;101442.16;;;16.23;100.00
36048;BME280;24313;53.370;-6.596;2023-08-07T08:29:24;101438.75;;;16.30;100.00
36048;BME280;24313;53.370;-6.596;2023-08-07T08:31:51;101439.44;;;15.06;100.00
36048;BME280;24313;53.370;-6.596;2023-08-07T08:34:19;101438.73;;;16.08;100.00
36048;BME280;24313;53.370;-6.596;2023-08-07T08:36:46;101434.12;;;15.50;100.00
36048;BME280;24313;53.370;-6.596;2023-08-07T08:39:14;101429.40;;;15.50;100.00
36048;BME280;24313;53.370;-6.596;2023-08-07T08:41:41;101428.73;;;15.58;100.00
36048;BME280;24313;53.370;-6.596;2023-08-07T08:44:14;101427.15;;;15.53;100.00
36048;BME280;24313;53.370;-6.596;2023-08-07T08:46:42;101425.24;;;16.85;100.00
36048;BME280;24313;53.370;-6.596;2023-08-07T08:49:10;101419.76;;;16.18;100.00
36048;BME280;24313;53.370;-6.596;2023-08-07T08:51:39;101423.63;;;16.93;96.32
36048;BME280;24313;53.370;-6.596;2023-08-07T08:54:07;101417.05;;;16.38;100.00
36048;BME280;24313;53.370;-6.596;2023-08-07T08:56:35;101418.93;;;15.80;100.00
36048;BME280;24313;53.370;-6.596;2023-08-07T08:59:03;101416.96;;;14.33;100.00
36048;BME280;24313;53.370;-6.596;2023-08-07T09:01:30;101417.10;;;16.06;100.00
36048;BME280;24313;53.370;-6.596;2023-08-07T09:03:58;101414.75;;;15.96;100.00
36048;BME280;24313;53.370;-6.596;2023-08-07T09:06:27;101416.68;;;14.91;100.00
36048;BME280;24313;53.370;-6.596;2023-08-07T09:08:58;101418.27;;;15.77;100.00
36048;BME280;24313;53.370;-6.596;2023-08-07T09:11:28;101413.89;;;16.52;99.97
36048;BME280;24313;53.370;-6.596;2023-08-07T09:13:57;101413.51;;;16.87;100.00
36048;BME280;24313;53.370;-6.596;2023-08-07T09:16:26;101413.03;;;16.30;100.00
36048;BME280;24313;53.370;-6.596;2023-08-07T09:18:54;101413.16;;;17.45;100.00
36048;BME280;24313;53.370;-6.596;2023-08-07T09:21:22;101406.69;;;17.40;100.00
36048;BME280;24313;53.370;-6.596;2023-08-07T09:23:49;101406.53;;;17.41;96.25
36048;BME280;24313;53.370;-6.596;2023-08-07T09:26:21;101399.83;;;18.15;93.25
36048;BME280;24313;53.370;-6.596;2023-08-07T09:28:48;101401.52;;;18.23;91.83
36048;BME280;24313;53.370;-6.596;2023-08-07T09:31:18;101401.81;;;17.51;99.05
36048;BME280;24313;53.370;-6.596;2023-08-07T09:33:47;101397.75;;;18.57;89.43
36048;BME280;24313;53.370;-6.596;2023-08-07T09:36:14;101392.36;;;18.00;95.73
36048;BME280;24313;53.370;-6.596;2023-08-07T09:38:42;101388.97;;;17.05;98.46
36048;BME280;24313;53.370;-6.596;2023-08-07T09:41:09;101381.71;;;17.69;92.35
36048;BME280;24313;53.370;-6.596;2023-08-07T09:43:37;101388.08;;;15.82;93.46
36048;BME280;24313;53.370;-6.596;2023-08-07T09:46:05;101387.05;;;16.41;100.00
36048;BME280;24313;53.370;-6.596;2023-08-07T09:48:40;101388.74;;;14.73;100.00
36048;BME280;24313;53.370;-6.596;2023-08-07T09:51:09;101384.44;;;14.84;100.00
36048;BME280;24313;53.370;-6.596;2023-08-07T09:53:36;101382.63;;;13.69;100.00
36048;BME280;24313;53.370;-6.596;2023-08-07T09:56:04;101385.86;;;15.53;100.00
36048;BME280;24313;53.370;-6.596;2023-08-07T09:58:31;101383.72;;;16.90;100.00
36048;BME280;24313;53.370;-6.596;2023-08-07T10:01:00;101386.78;;;14.78;100.00
36048;BME280;24313;53.370;-6.596;2023-08-07T10:03:28;101381.97;;;17.38;98.05
36048;BME280;24313;53.370;-6.596;2023-08-07T10:05:55;101379.00;;;16.51;100.00
36048;BME280;24313;53.370;-6.596;2023-08-07T10:08:24;101380.87;;;16.74;100.00
36048;BME280;24313;53.370;-6.596;2023-08-07T10:10:51;101372.20;;;17.53;100.00
36048;BME280;24313;53.370;-6.596;2023-08-07T10:13:19;101372.01;;;18.56;92.59
36048;BME280;24313;53.370;-6.596;2023-08-07T10:15:47;101367.22;;;18.06;96.12
36048;BME280;24313;53.370;-6.596;2023-08-07T10:18:15;101364.29;;;19.33;89.38
36048;BME280;24313;53.370;-6.596;2023-08-07T10:20:43;101371.14;;;16.04;97.03
36048;BME280;24313;53.370;-6.596;2023-08-07T10:23:11;101368.41;;;18.23;93.77
36048;BME280;24313;53.370;-6.596;2023-08-07T10:25:45;101364.44;;;17.70;84.00
36048;BME280;24313;53.370;-6.596;2023-08-07T10:28:16;101376.28;;;16.50;100.00
36048;BME280;24313;53.370;-6.596;2023-08-07T10:30:43;101378.66;;;16.70;95.86
36048;BME280;24313;53.370;-6.596;2023-08-07T10:33:12;101379.15;;;16.80;100.00
36048;BME280;24313;53.370;-6.596;2023-08-07T10:35:46;101377.72;;;15.28;100.00
36048;BME280;24313;53.370;-6.596;2023-08-07T10:38:14;101374.20;;;15.39;100.00
36048;BME280;24313;53.370;-6.596;2023-08-07T10:41:14;101377.74;;;14.64;100.00
36048;BME280;24313;53.370;-6.596;2023-08-07T10:43:42;101379.31;;;15.07;100.00
36048;BME280;24313;53.370;-6.596;2023-08-07T10:46:12;101374.79;;;15.90;100.00
36048;BME280;24313;53.370;-6.596;2023-08-07T10:48:46;101369.04;;;16.46;100.00
36048;BME280;24313;53.370;-6.596;2023-08-07T10:51:14;101370.10;;;17.07;100.00
36048;BME280;24313;53.370;-6.596;2023-08-07T10:53:48;101370.84;;;17.13;100.00
36048;BME280;24313;53.370;-6.596;2023-08-07T10:56:30;101371.12;;;17.41;99.65
36048;BME280;24313;53.370;-6.596;2023-08-07T10:58:58;101373.30;;;16.60;100.00
36048;BME280;24313;53.370;-6.596;2023-08-07T11:01:40;101369.99;;;15.84;100.00
36048;BME280;24313;53.370;-6.596;2023-08-07T11:04:09;101372.42;;;16.87;100.00
36048;BME280;24313;53.370;-6.596;2023-08-07T11:06:38;101369.42;;;17.24;94.05
36048;BME280;24313;53.370;-6.596;2023-08-07T11:09:07;101366.72;;;15.60;99.72
36048;BME280;24313;53.370;-6.596;2023-08-07T11:11:36;101365.11;;;16.53;100.00
36048;BME280;24313;53.370;-6.596;2023-08-07T11:14:04;101358.55;;;15.85;100.00
36048;BME280;24313;53.370;-6.596;2023-08-07T11:16:32;101357.98;;;16.92;100.00
36048;BME280;24313;53.370;-6.596;2023-08-07T11:19:01;101355.18;;;17.57;95.31
36048;BME280;24313;53.370;-6.596;2023-08-07T11:21:29;101347.20;;;17.39;96.47
36048;BME280;24313;53.370;-6.596;2023-08-07T11:23:57;101339.57;;;17.79;98.56
36048;BME280;24313;53.370;-6.596;2023-08-07T11:26:25;101336.52;;;18.25;100.00
36048;BME280;24313;53.370;-6.596;2023-08-07T11:28:52;101337.60;;;20.00;89.41
36048;BME280;24313;53.370;-6.596;2023-08-07T11:31:20;101331.65;;;19.54;85.96
36048;BME280;24313;53.370;-6.596;2023-08-07T11:33:50;101329.47;;;19.31;82.79
36048;BME280;24313;53.370;-6.596;2023-08-07T11:36:17;101330.96;;;19.08;84.99
36048;BME280;24313;53.370;-6.596;2023-08-07T11:38:45;101323.44;;;18.13;87.75
36048;BME280;24313;53.370;-6.596;2023-08-07T11:41:13;101323.55;;;16.58;88.43
36048;BME280;24313;53.370;-6.596;2023-08-07T11:43:41;101318.98;;;18.65;86.80
36048;BME280;24313;53.370;-6.596;2023-08-07T11:46:10;101315.54;;;17.90;88.04
36048;BME280;24313;53.370;-6.596;2023-08-07T11:48:39;101314.54;;;19.72;77.31
36048;BME280;24313;53.370;-6.596;2023-08-07T11:51:07;101309.16;;;18.73;81.21
36048;BME280;24313;53.370;-6.596;2023-08-07T11:53:36;101305.25;;;19.16;78.10
36048;BME280;24313;53.370;-6.596;2023-08-07T11:56:05;101305.99;;;19.46;75.69
36048;BME280;24313;53.370;-6.596;2023-08-07T11:58:34;101303.24;;;17.27;90.21
36048;BME280;24313;53.370;-6.596;2023-08-07T12:01:04;101296.64;;;18.88;82.34
36048;BME280;24313;53.370;-6.596;2023-08-07T12:03:34;101298.94;;;17.83;87.83
36048;BME280;24313;53.370;-6.596;2023-08-07T12:06:03;101302.60;;;15.76;94.51
36048;BME280;24313;53.370;-6.596;2023-08-07T12:08:32;101303.23;;;14.34;100.00
36048;BME280;24313;53.370;-6.596;2023-08-07T12:11:02;101303.97;;;16.14;94.62
36048;BME280;24313;53.370;-6.596;2023-08-07T12:13:29;101301.15;;;16.26;100.00
36048;BME280;24313;53.370;-6.596;2023-08-07T12:15:57;101291.87;;;17.12;89.10
36048;BME280;24313;53.370;-6.596;2023-08-07T12:18:26;101300.26;;;17.00;91.61
36048;BME280;24313;53.370;-6.596;2023-08-07T12:20:57;101300.82;;;13.84;100.00
36048;BME280;24313;53.370;-6.596;2023-08-07T12:23:26;101298.59;;;13.29;100.00
36048;BME280;24313;53.370;-6.596;2023-08-07T12:25:53;101298.44;;;13.13;100.00
36048;BME280;24313;53.370;-6.596;2023-08-07T12:28:21;101297.29;;;14.58;100.00
36048;BME280;24313;53.370;-6.596;2023-08-07T12:30:50;101294.29;;;15.76;100.00
36048;BME280;24313;53.370;-6.596;2023-08-07T12:33:17;101294.58;;;15.86;100.00
36048;BME280;24313;53.370;-6.596;2023-08-07T12:35:44;101294.22;;;16.07;100.00
36048;BME280;24313;53.370;-6.596;2023-08-07T12:38:12;101289.00;;;15.75;100.00